• Join FlightAware (Why Join?)
  • Login
  • US Flag 
12:08AM EDT


 

Airport Tracker/Info


-or-


 

Live Flight TrackerFlight Track Log ✈ BJS542 ✈ 06-May-2013 ✈ KAPF - KSBM

Flight Track Log - Related Links

Times and Time Zones

All times are in EDT time to prevent confusion due to time zone crossing. See the BJS542 flight status page for this flight to view local times or setup timezone preferences in your user account.

Time Position Orientation Groundspeed Altitude Reporting Facility
EDT Latitude Longitude Course Direction KTS MPH feet Rate Location/Type
12:19PM 26.1303 -81.8664 338° Northwest 190 219 4,800  Level Miami Center
12:20PM 26.1194 -81.9422 261° West 232 267 5,900 1,380 Climbing Miami Center
12:21PM 26.1336 -82.0144 282° West 244 281 7,600 2,460 Climbing Miami Center
12:22PM 26.1536 -82.0939 286° West 244 281 10,900 3,300 Climbing Miami Center
12:23PM 26.1836 -82.1878 290° West 280 322 14,200 3,300 Climbing Miami Center
12:24PM 26.2050 -82.2906 283° West 323 372 17,500 3,000 Climbing Miami Center
12:25PM 26.3135 -82.4412 338° Northwest  Level FlightAware Approximate
12:25PM 26.2411 -82.3872 293° West 343 395 20,200  Level Miami Center
12:26PM 26.3328 -82.4469 330° Northwest 344 396 22,800 2,100 Climbing Miami Center
12:28PM 26.4785 -82.5059 336° Northwest  Level FlightAware Approximate
12:29PM 26.6447 -82.5781 338° Northwest 405 466 28,700  Level Miami Center
12:30PM 26.7578 -82.6231 340° North 421 484 30,400 1,560 Climbing Miami Center
12:31PM 26.8750 -82.6706 340° North 432 497 31,900 1,440 Climbing Miami Center
12:33PM 27.0177 -82.7238 340° North  Level FlightAware Approximate
12:33PM 27.1047 -82.7661 340° North 443 510 34,800  Level Miami Center
12:34PM 27.2217 -82.8139 340° North 443 510 36,400 1,800 Climbing Miami Center
12:35PM 27.3078 -82.8551 338° Northwest  Level FlightAware Approximate
12:35PM 27.3469 -82.8647 340° North 443 510 38,500  Level Miami Center
12:36PM 27.4492 -82.9122 338° Northwest 443 510 39,300 840 Climbing Miami Center
12:37PM 27.5661 -82.9606 340° North 443 510 40,200 720 Climbing Miami Center
12:39PM 27.7082 -83.0130 339° North  Level FlightAware Approximate
12:39PM 27.7956 -83.0597 339° North 443 510 41,600  Level Miami Center
12:41PM 28.0706 -83.1256 348° North 451 519 43,000 420 Climbing Jacksonville Center
12:42PM 28.2081 -83.0975 10° North 469 540 43,000  Level Jacksonville Center
12:43PM 28.3417 -83.0672 11° North 488 562 43,000  Level Jacksonville Center
12:44PM 28.4586 -83.0625 North 479 551 43,000  Level Jacksonville Center
12:46PM 28.7069 -83.1222 348° North 454 522 43,000  Level Jacksonville Center
12:47PM 28.8300 -83.1508 348° North 449 517 43,000  Level Jacksonville Center
12:48PM 28.9531 -83.1844 347° North 449 517 43,000  Level Jacksonville Center
12:49PM 29.0761 -83.2156 348° North 449 517 43,000  Level Jacksonville Center
12:51PM 29.2110 -83.2575 345° North  Level FlightAware Approximate
12:54PM 29.6978 -83.3828 345° North 449 517 43,000  Level Jacksonville Center
12:55PM 29.8228 -83.4144 348° North 449 517 43,000  Level Jacksonville Center
12:56PM 29.9500 -83.4486 347° North 449 517 43,000  Level Jacksonville Center
12:58PM 30.0320 -83.5155 345° North  Level FlightAware Approximate
12:58PM 30.0862 -83.4850 347° North  Level Estimated
12:59PM 30.1492 -83.5527 345° North  Level FlightAware Approximate
12:59PM 30.3233 -83.5472 347° North 454 522 43,000  Level Jacksonville Center
01:00PM 30.2664 -83.5900 345° North  Level FlightAware Approximate
01:01PM 30.4522 -83.6102 337° Northwest  Level FlightAware Approximate
01:01PM 30.5819 -83.6189 337° Northwest 446 513 43,000  Level Jacksonville Center
01:02PM 30.7069 -83.6489 348° North 446 513 43,000  Level Jacksonville Center
01:03PM 30.8319 -83.6836 347° North 452 520 43,000  Level Jacksonville Center
01:04PM 30.9319 -83.7136 346° North 452 520 43,000  Level Jacksonville Center
01:05PM 30.9151 -83.7086 347° North  Level Estimated
01:05PM 31.0653 -83.7486 347° North 452 520 43,000  Level Jacksonville Center
01:06PM 31.1906 -83.7839 346° North 452 520 43,000  Level Jacksonville Center
01:09PM 31.3558 -83.8449 342° North  Level FlightAware Approximate
01:09PM 31.5336 -83.8806 342° North 429 494 43,000  Level Atlanta Center
01:10PM 31.6589 -83.9169 346° North 438 504 43,000  Level Atlanta Center
01:12PM 31.8160 -84.0105 344° North  Level FlightAware Approximate
01:12PM 31.9072 -83.9825 344° North 448 516 43,000  Level Atlanta Center
01:14PM 32.0702 -84.0518 340° North  Level FlightAware Approximate
01:14PM 32.1494 -84.0486 340° North 448 516 43,000  Level Atlanta Center
01:15PM 32.2725 -84.0831 347° North 448 516 43,000  Level Atlanta Center
01:17PM 32.4250 -84.1805 332° Northwest  Level FlightAware Approximate
01:17PM 32.5189 -84.1522 332° Northwest 448 516 43,000  Level Atlanta Center
01:18PM 32.6442 -84.1869 347° North 448 516 43,000  Level Atlanta Center
01:19PM 32.7672 -84.2242 346° North 448 516 43,000  Level Atlanta Center
01:21PM 32.9335 -84.2823 344° North  Level FlightAware Approximate
01:22PM 33.1219 -84.3242 344° North 448 516 43,000  Level Atlanta Center
01:24PM 33.2904 -84.3725 347° North  Level Estimated
01:25PM 33.5056 -84.4350 347° North 453 521 43,000  Level Atlanta Center
01:26PM 33.6161 -84.4678 346° North 453 521 43,000  Level Atlanta Center
01:27PM 33.7433 -84.5036 347° North 453 521 43,000  Level Atlanta Center
01:28PM 33.7450 -84.5693 344° North  Level FlightAware Approximate
01:29PM 33.8986 -84.5961 334° Northwest  Level FlightAware Approximate
01:31PM 34.1131 -84.6109 347° North  Level Estimated
01:33PM 34.5208 -84.7269 347° North 455 524 43,000  Level Atlanta Center
01:34PM 34.6458 -84.7658 346° North 455 524 43,000  Level Atlanta Center
01:35PM 34.7644 -84.8025 346° North 446 513 43,000  Level Atlanta Center
01:36PM 34.7198 -84.8677 345° North  Level FlightAware Approximate
01:36PM 34.8914 -84.8414 346° North 446 513 43,000  Level Atlanta Center
01:37PM 34.8366 -84.9055 347° North  Level FlightAware Approximate
01:37PM 35.0164 -84.8808 346° North 452 520 43,000  Level Atlanta Center
01:38PM 34.9545 -84.9382 347° North  Level FlightAware Approximate
01:38PM 35.1436 -84.9175 347° North 457 526 43,000  Level Atlanta Center
01:40PM 35.3953 -84.9917 346° North 457 526 43,000  Level Atlanta Center
01:41PM 35.5222 -85.0339 345° North 462 532 43,000  Level Atlanta Center
01:43PM 35.7636 -85.1086 346° North 467 537 43,000  Level Atlanta Center
01:45PM 35.9279 -85.1804 341° North  Level FlightAware Approximate
01:46PM 36.0958 -85.2047 341° North 469 540 43,000  Level Indianapolis Center
01:47PM 36.2222 -85.2433 346° North 466 536 43,000  Level Indianapolis Center
01:49PM 36.5014 -85.3306 346° North 467 537 43,000  Level Indianapolis Center
01:50PM 36.6294 -85.3700 346° North 471 542 43,000  Level Indianapolis Center
01:51PM 36.7547 -85.4089 346° North 467 537 43,000  Level Indianapolis Center
01:53PM 37.0075 -85.4894 346° North 466 536 43,000  Level Indianapolis Center
01:55PM 37.1924 -85.5804 339° North  Level FlightAware Approximate
01:55PM 37.2639 -85.5686 339° North 468 539 43,000  Level Indianapolis Center
01:57PM 37.4373 -85.6818 346° North  Level FlightAware Approximate
02:00PM 37.9347 -85.7842 346° North 471 542 43,000  Level Indianapolis Center
02:02PM 38.1016 -85.8384 346° North  Level Estimated
02:02PM 38.1892 -85.8658 346° North 472 543 43,000  Level Indianapolis Center
02:04PM 38.2641 -85.9380 346° North  Level FlightAware Approximate
02:04PM 38.3462 -85.9353 341° North  Level FlightAware Approximate
02:04PM 38.4394 -85.9486 341° North 464 534 43,000  Level Indianapolis Center
02:05PM 38.3821 -85.9751 346° North  Level FlightAware Approximate
02:05PM 38.5650 -85.9903 345° North 465 535 43,000  Level Indianapolis Center
02:06PM 38.5002 -86.0123 346° North  Level FlightAware Approximate
02:06PM 38.6906 -86.0319 345° North 466 536 43,000  Level Indianapolis Center
02:07PM 38.8408 -86.0819 345° North 465 535 43,000  Level Indianapolis Center
02:09PM 38.9779 -86.1535 338° Northwest  Level FlightAware Approximate
02:10PM 39.1325 -86.1800 338° Northwest 546 628 43,000  Level Chicago Center
02:11PM 39.2564 -86.2208 346° North 466 536 43,000  Level Chicago Center
02:11PM 39.3319 -86.2469 345° North 462 532 43,000  Level Indianapolis Center
02:12PM 39.4797 -86.2961 346° North 458 527 43,000  Level Indianapolis Center
02:13PM 39.6025 -86.3383 345° North 454 522 43,000  Level Indianapolis Center
02:14PM 39.7100 -86.3750 345° North 454 522 43,000  Level Indianapolis Center
02:17PM 39.9781 -86.4661 345° North 455 524 43,000  Level Indianapolis Center
02:18PM 40.1475 -86.5247 345° North 451 519 43,000  Level Chicago Center
02:20PM 40.3414 -86.5917 345° North 451 519 43,000  Level Indianapolis Center
02:21PM 40.4631 -86.6333 345° North 452 520 43,000  Level Indianapolis Center
02:21PM 40.5119 -86.6500 345° North 454 522 43,000  Level Chicago Center
02:23PM 40.7769 -86.7433 345° North 444 511 43,000  Level Chicago Center
02:25PM 40.9747 -86.8136 345° North 457 526 43,000  Level Indianapolis Center
02:26PM 41.0975 -86.8569 345° North 458 527 43,000  Level Indianapolis Center
02:26PM 41.1450 -86.8744 344° North 463 533 43,000 -720 Level Chicago Center
02:27PM 41.2675 -86.9186 345° North 460 529 42,000 -1,440 Descending Chicago Center
02:28PM 41.4144 -86.9711 345° North 460 529 40,100 -1,740 Descending Chicago Center
02:29PM 41.5378 -87.0164 345° North 464 534 38,500 -540 Descending Chicago Center
02:31PM 41.6753 -87.0731 343° North  Level FlightAware Approximate
02:32PM 41.9406 -87.1639 345° North 475 547 37,900  Level Chicago Center
02:33PM 42.0675 -87.2097 345° North 476 548 36,300 -1,920 Descending Chicago Center
02:36PM 42.3073 -87.3038 347° North  Level FlightAware Approximate
02:38PM 42.4950 -87.3784 345° North  Level FlightAware Approximate
02:38PM 42.5864 -87.3983 344° North 463 533 28,000  Level Chicago Center
02:40PM 42.8116 -87.4832 344° North  Level Estimated
02:40PM 42.9167 -87.5167 344° North 438 504 22,400  Level KMKE
02:41PM 43.0167 -87.5667 340° North 406 467 19,400 -2,700 Descending KMKE
02:42PM 43.0478 -87.5742 350° North 411 473 18,700 -2,580 Descending Chicago Center
02:43PM 43.1296 -87.6118 344° North  Level FlightAware Approximate
02:43PM 43.2333 -87.6500 343° North 356 410 14,000  Level KMKE
02:44PM 43.3167 -87.6667 352° North 310 357 12,400 -1,800 Descending KMKE
02:45PM 43.3447 -87.6864 333° Northwest 318 366 11,600 -2,040 Descending Chicago Center
02:46PM 43.4244 -87.7172 344° North 302 348 9,400 -2,160 Descending Chicago Center
02:48PM 43.6154 -87.7910 340° North  Level FlightAware Approximate